Hub


Voltar

 INFORMAÇÕES METEOROLÓGICAS

METAR FOR PAWG


ADDS - METARS form results

(0842 UTC 25 March 2019)
Data provider http://aviationweather.gov/metar/data/
 
Forecast for: PAWG (WRANGELL , AK, US)
Text: PAWG 250520Z 2506/2606 29008KT P6SM SKC AMD LTD TO CLD VIS AND WIND 2506/2515
Forecast period: 0600 UTC 25 March 2019 to 0600 UTC 26 March 2019
Forecast type: FROM: standard forecast or significant change
Winds: from the WNW (290 degrees) at 9 MPH (8 knots; 4.1 m/s)
Visibility: 6 or more miles 10+ km)
Clouds: clear skies
Weather: no significant weather forecast for this period


 MAPA DO AEROPORTO


 INFORMAÇÕES DA PISTA

Pista 10 Tamanho da pista 5999 ft Largura da pista 150 ft
Elevação da pista 27 ft Ranhura da pista 0 ft Proa da pista 121
Pista 28 Tamanho da pista 5999 ft Largura da pista 150 ft
Elevação da pista 44 ft Ranhura da pista 0 ft Proa da pista 301

 FREQUÊNCIAS DO AEROPORTO

Tipo AWOS Nome AWOS 3 Frequência 128.5 MHZ
Tipo CNTR Nome ANCHORAGE Frequência 118 MHZ
Tipo CTAF Nome CTAF Frequência 122.6 MHZ
Tipo FSS Nome SITKA RDO Frequência 122.45 MHZ

 AUXÍLIOS DE NAVEGAÇÃO PRÓXIMOS AO AEROPORTO

Tipo VOR-DME Nome Level Island Frequência 116500 KHZ